createdAt,value
2022-11-26T00:00:19.248Z,81.65
2022-11-26T00:03:21.977Z,82.99
2022-11-26T00:06:29.884Z,83.83
2022-11-26T00:09:33.790Z,83.52
2022-11-26T00:12:36.406Z,83.35
2022-11-26T00:15:39.271Z,83.52
2022-11-26T00:18:42.122Z,82.94
2022-11-26T00:21:44.822Z,83.54
2022-11-26T00:24:48.740Z,83.87
2022-11-26T00:27:52.881Z,83.07
2022-11-26T00:30:57.812Z,83.35
2022-11-26T00:34:00.454Z,83.64
2022-11-26T00:37:03.098Z,84.82
2022-11-26T00:40:11.683Z,84.43
2022-11-26T00:43:15.709Z,83.59
2022-11-26T00:46:20.540Z,83.02
2022-11-26T00:49:24.101Z,82.29
2022-11-26T00:52:31.275Z,82.42
2022-11-26T00:55:36.458Z,82.62
2022-11-26T00:58:39.061Z,81.64
2022-11-26T01:01:41.802Z,81.72
2022-11-26T01:04:44.360Z,81.36
2022-11-26T01:07:47.679Z,79.87
2022-11-26T01:10:51.694Z,80.21
2022-11-26T01:13:55.696Z,80.81
2022-11-26T01:16:58.837Z,81.16
2022-11-26T01:20:01.504Z,80.58
2022-11-26T01:23:04.194Z,79.60
2022-11-26T01:26:08.495Z,79.92
2022-11-26T01:29:15.622Z,80.23
2022-11-26T01:32:18.194Z,80.05
2022-11-26T01:35:21.761Z,80.49
2022-11-26T01:38:24.437Z,80.45
2022-11-26T01:41:40.719Z,81.46
2022-11-26T01:44:43.337Z,81.85
2022-11-26T01:47:48.598Z,81.83
2022-11-26T01:51:00.601Z,81.47
2022-11-26T01:54:03.481Z,82.06
2022-11-26T01:57:10.382Z,81.51
2022-11-26T02:00:14.376Z,81.25
2022-11-26T02:03:17.699Z,81.41
2022-11-26T02:06:23.893Z,81.03
2022-11-26T02:09:27.562Z,81.24
2022-11-26T02:12:31.432Z,81.10
2022-11-26T02:15:39.378Z,81.54
2022-11-26T02:18:43.800Z,81.97
2022-11-26T02:21:51.512Z,81.56
2022-11-26T02:25:01.154Z,81.30
2022-11-26T02:28:25.389Z,81.29
2022-11-26T02:31:30.613Z,81.54
2022-11-26T02:34:38.050Z,81.35
2022-11-26T02:37:44.004Z,81.89
2022-11-26T02:40:46.636Z,81.90
2022-11-26T02:43:49.657Z,81.95
2022-11-26T02:46:56.068Z,83.21
2022-11-26T02:50:01.544Z,82.94
2022-11-26T02:53:04.786Z,83.01
2022-11-26T02:56:10.455Z,83.28
2022-11-26T02:59:15.066Z,83.22
2022-11-26T03:02:23.162Z,82.75
2022-11-26T03:05:26.096Z,83.52
2022-11-26T03:08:29.063Z,82.79
2022-11-26T03:11:31.693Z,82.79
2022-11-26T03:14:34.517Z,82.25
2022-11-26T03:17:39.009Z,81.91
2022-11-26T03:20:41.621Z,82.60
2022-11-26T03:23:44.258Z,81.82
2022-11-26T03:26:46.805Z,81.79
2022-11-26T03:29:49.533Z,82.05
2022-11-26T03:32:53.452Z,82.55
2022-11-26T03:35:56.194Z,82.72
2022-11-26T03:38:58.769Z,82.99
2022-11-26T03:42:01.772Z,82.99
2022-11-26T03:45:05.323Z,82.72
2022-11-26T03:48:09.389Z,82.91
2022-11-26T03:51:12.097Z,83.88
2022-11-26T03:54:14.759Z,84.22
2022-11-26T03:57:17.805Z,84.83
2022-11-26T04:00:21.779Z,85.61
2022-11-26T04:03:25.944Z,86.33
2022-11-26T04:06:28.574Z,86.41
2022-11-26T04:09:31.514Z,87.09
2022-11-26T04:12:34.182Z,86.43
2022-11-26T04:15:36.760Z,86.62
2022-11-26T04:18:40.702Z,86.10
2022-11-26T04:21:43.375Z,86.67
2022-11-26T04:24:46.023Z,85.98
2022-11-26T04:27:48.620Z,86.78
2022-11-26T04:30:51.456Z,86.32
2022-11-26T04:33:55.350Z,86.02
2022-11-26T04:36:57.947Z,86.24
2022-11-26T04:40:00.611Z,85.62
2022-11-26T04:43:03.188Z,85.74
2022-11-26T04:46:05.986Z,85.48
2022-11-26T04:49:10.158Z,86.02
2022-11-26T04:52:13.838Z,85.96
2022-11-26T04:55:16.472Z,86.36
2022-11-26T04:58:19.521Z,86.18
2022-11-26T05:01:22.205Z,87.48
2022-11-26T05:04:26.155Z,87.90
2022-11-26T05:07:28.836Z,88.63
2022-11-26T05:10:31.820Z,88.03
2022-11-26T05:13:34.402Z,88.31
2022-11-26T05:16:37.226Z,88.34
2022-11-26T05:19:41.185Z,88.59
2022-11-26T05:22:43.869Z,89.15
2022-11-26T05:25:46.432Z,88.54
2022-11-26T05:28:48.984Z,88.83
2022-11-26T05:31:51.736Z,88.56
2022-11-26T05:34:59.859Z,88.92
2022-11-26T05:38:02.874Z,88.33
2022-11-26T05:41:05.695Z,88.70
2022-11-26T05:44:08.313Z,89.53
2022-11-26T05:47:11.046Z,88.93
2022-11-26T05:50:15.517Z,89.73
2022-11-26T05:53:18.186Z,89.43
2022-11-26T05:56:20.741Z,89.45
2022-11-26T05:59:23.323Z,89.81
2022-11-26T06:02:25.989Z,89.54
2022-11-26T06:05:30.070Z,89.53
2022-11-26T06:08:32.765Z,89.83
2022-11-26T06:11:35.381Z,89.81
2022-11-26T06:14:42.777Z,89.66
2022-11-26T06:17:45.981Z,89.59
2022-11-26T06:20:49.918Z,89.41
2022-11-26T06:23:58.911Z,89.33
2022-11-26T06:27:02.076Z,89.24
2022-11-26T06:30:06.932Z,89.34
2022-11-26T06:33:09.491Z,89.55
2022-11-26T06:36:13.431Z,89.64
2022-11-26T06:39:16.165Z,89.64
2022-11-26T06:42:18.983Z,89.22
2022-11-26T06:45:22.692Z,89.50
2022-11-26T06:48:25.835Z,89.93
2022-11-26T06:51:29.904Z,89.88
2022-11-26T06:54:32.805Z,89.73
2022-11-26T06:57:35.552Z,89.49
2022-11-26T07:00:38.236Z,89.58
2022-11-26T07:03:41.033Z,89.52
2022-11-26T07:06:45.760Z,89.38
2022-11-26T07:09:48.427Z,89.63
2022-11-26T07:12:51.028Z,89.57
2022-11-26T07:15:53.857Z,89.95
2022-11-26T07:19:02.746Z,90.67
2022-11-26T07:22:07.265Z,90.55
2022-11-26T07:25:12.774Z,90.58
2022-11-26T07:28:15.637Z,90.91
2022-11-26T07:31:20.028Z,91.58
2022-11-26T07:34:22.695Z,91.59
2022-11-26T07:37:26.839Z,91.28
2022-11-26T07:40:29.403Z,91.34
2022-11-26T07:43:32.028Z,91.24
2022-11-26T07:46:34.762Z,90.55
2022-11-26T07:49:37.546Z,91.35
2022-11-26T07:52:41.620Z,90.75
2022-11-26T07:55:44.225Z,90.22
2022-11-26T07:58:47.135Z,89.96
2022-11-26T08:01:49.861Z,88.49
2022-11-26T08:04:52.514Z,88.62
2022-11-26T08:07:56.692Z,88.39
2022-11-26T08:10:59.424Z,87.90
2022-11-26T08:14:04.420Z,87.05
2022-11-26T08:17:06.982Z,86.90
2022-11-26T08:20:10.440Z,86.43
2022-11-26T08:23:14.372Z,85.59
2022-11-26T08:26:32.584Z,85.39
2022-11-26T08:29:37.549Z,84.64
2022-11-26T08:32:40.191Z,83.49
2022-11-26T08:36:05.449Z,82.35
2022-11-26T08:39:06.884Z,81.79
2022-11-26T08:42:09.483Z,81.96
2022-11-26T08:45:12.640Z,81.09
2022-11-26T08:48:15.378Z,80.25
2022-11-26T08:51:18.363Z,80.99
2022-11-26T08:54:22.344Z,80.87
2022-11-26T08:57:26.481Z,80.82
2022-11-26T09:00:29.219Z,81.09
2022-11-26T09:03:32.369Z,81.26
2022-11-26T09:06:36.795Z,82.24
2022-11-26T09:09:40.808Z,83.04
2022-11-26T09:12:43.498Z,83.66
2022-11-26T09:15:46.217Z,83.51
2022-11-26T09:18:48.902Z,83.73
2022-11-26T09:21:51.589Z,83.64
2022-11-26T09:24:55.673Z,82.86
2022-11-26T09:27:58.326Z,82.90
2022-11-26T09:31:01.441Z,82.97
2022-11-26T09:34:04.351Z,83.36
2022-11-26T09:37:07.109Z,82.16
2022-11-26T09:40:18.000Z,81.59
2022-11-26T09:43:26.922Z,81.52
2022-11-26T09:46:45.461Z,81.63
2022-11-26T09:49:56.489Z,81.45
2022-11-26T09:53:01.820Z,81.21
2022-11-26T09:56:10.233Z,79.98
2022-11-26T09:59:14.760Z,80.95
2022-11-26T10:02:17.637Z,80.89
2022-11-26T10:05:21.593Z,80.58
2022-11-26T10:08:50.584Z,80.29
2022-11-26T10:12:01.930Z,80.41
2022-11-26T10:15:10.214Z,79.89
2022-11-26T10:18:18.734Z,79.03
2022-11-26T10:21:37.742Z,77.26
2022-11-26T10:24:46.450Z,75.63
2022-11-26T10:27:51.001Z,75.55
2022-11-26T10:30:58.744Z,75.76
2022-11-26T10:34:03.987Z,74.91
2022-11-26T10:37:07.049Z,73.15
2022-11-26T10:40:19.955Z,72.37
2022-11-26T10:43:25.449Z,71.76
2022-11-26T10:46:33.879Z,72.45
2022-11-26T10:49:36.654Z,72.83
2022-11-26T10:52:42.075Z,72.55
2022-11-26T10:55:45.019Z,71.87
2022-11-26T10:58:50.344Z,72.06
2022-11-26T11:01:56.198Z,71.35
2022-11-26T11:05:02.864Z,70.83
2022-11-26T11:08:05.721Z,70.57
2022-11-26T11:11:20.081Z,69.58
2022-11-26T11:14:29.566Z,69.61
2022-11-26T11:17:34.953Z,69.83
2022-11-26T11:20:38.754Z,69.85
2022-11-26T11:24:07.009Z,70.91
2022-11-26T11:27:04.373Z,71.32
2022-11-26T11:30:25.774Z,71.01
2022-11-26T11:33:30.358Z,71.34
2022-11-26T11:36:33.248Z,71.39
2022-11-26T11:39:37.020Z,71.51
2022-11-26T11:42:40.828Z,71.94
2022-11-26T11:45:53.264Z,72.07
2022-11-26T11:49:01.414Z,72.48
2022-11-26T11:52:15.007Z,72.37
2022-11-26T11:55:23.857Z,72.54
2022-11-26T11:58:55.450Z,72.02
2022-11-26T12:02:16.206Z,71.71
2022-11-26T12:05:35.305Z,70.91
2022-11-26T12:08:45.148Z,70.85
2022-11-26T12:11:54.980Z,71.25
2022-11-26T12:15:05.056Z,71.84
2022-11-26T12:18:21.996Z,72.30
2022-11-26T12:21:31.608Z,72.49
2022-11-26T12:24:39.484Z,73.12
2022-11-26T12:27:45.727Z,72.69
2022-11-26T12:30:52.704Z,71.84
2022-11-26T12:34:04.182Z,72.16
2022-11-26T12:37:16.664Z,73.22
2022-11-26T12:40:29.392Z,74.47
2022-11-26T12:43:44.757Z,75.07
2022-11-26T12:46:53.390Z,74.50
2022-11-26T12:50:07.127Z,63.45
2022-11-26T12:53:18.121Z,64.19
2022-11-26T12:56:22.826Z,67.99
2022-11-26T12:59:28.896Z,64.84
2022-11-26T13:02:33.946Z,57.25
2022-11-26T13:05:51.111Z,54.60
2022-11-26T13:09:01.928Z,61.46
2022-11-26T13:12:09.114Z,58.83
2022-11-26T13:15:15.904Z,60.49
2022-11-26T13:18:22.464Z,48.66
2022-11-26T13:21:37.524Z,39.38
2022-11-26T13:24:55.509Z,36.32
2022-11-26T13:28:05.736Z,46.48
2022-11-26T13:31:22.304Z,55.25
2022-11-26T13:34:38.528Z,60.95
2022-11-26T13:37:55.981Z,64.95
2022-11-26T13:41:31.580Z,67.62
2022-11-26T13:45:10.158Z,54.35
2022-11-26T13:48:16.530Z,42.80
2022-11-26T13:51:23.501Z,39.58
2022-11-26T13:54:30.285Z,37.62
2022-11-26T13:57:39.739Z,37.17
2022-11-26T14:00:42.510Z,37.29
2022-11-26T14:03:47.542Z,37.43
2022-11-26T14:07:21.439Z,36.49
2022-11-26T14:10:44.444Z,38.63
2022-11-26T14:14:23.355Z,47.11
2022-11-26T14:17:32.461Z,55.34
2022-11-26T14:21:14.222Z,61.54
2022-11-26T14:24:56.327Z,64.17
2022-11-26T14:28:01.848Z,66.19
2022-11-26T14:31:18.478Z,68.34
2022-11-26T14:34:26.266Z,69.73
2022-11-26T14:37:31.410Z,71.34
2022-11-26T14:40:36.781Z,72.16
2022-11-26T14:43:39.743Z,72.47
2022-11-26T14:46:44.289Z,73.96
2022-11-26T14:49:50.649Z,74.69
2022-11-26T14:52:58.939Z,75.17
2022-11-26T14:56:02.346Z,75.40
2022-11-26T14:59:05.668Z,76.05
2022-11-26T15:02:21.570Z,77.01
2022-11-26T15:05:25.980Z,77.12
2022-11-26T15:08:30.271Z,76.85
2022-11-26T15:11:33.226Z,77.86
2022-11-26T15:14:41.398Z,78.09
2022-11-26T15:17:45.830Z,79.34
2022-11-26T15:20:52.083Z,80.51
2022-11-26T15:23:58.277Z,80.83
2022-11-26T15:27:01.046Z,81.44
2022-11-26T15:30:04.698Z,82.92
2022-11-26T15:33:13.661Z,82.96
2022-11-26T15:36:17.907Z,83.86
2022-11-26T15:39:30.447Z,84.14
2022-11-26T15:42:33.402Z,84.71
2022-11-26T15:45:39.930Z,85.02
2022-11-26T15:48:54.448Z,85.18
2022-11-26T15:51:59.123Z,85.69
2022-11-26T15:55:13.709Z,85.76
2022-11-26T15:58:20.826Z,86.13
2022-11-26T16:01:26.613Z,85.71
2022-11-26T16:04:40.184Z,85.83
2022-11-26T16:07:57.675Z,86.15
2022-11-26T16:11:08.407Z,86.25
2022-11-26T16:14:24.879Z,86.22
2022-11-26T16:17:27.549Z,86.04
2022-11-26T16:20:30.698Z,86.54
2022-11-26T16:23:33.446Z,86.95
2022-11-26T16:26:57.468Z,87.09
2022-11-26T16:30:00.593Z,86.44
2022-11-26T16:33:03.360Z,87.09
2022-11-26T16:36:18.242Z,87.08
2022-11-26T16:39:20.815Z,87.42
2022-11-26T16:42:24.828Z,87.60
2022-11-26T16:45:27.533Z,87.38
2022-11-26T16:48:30.312Z,87.67
2022-11-26T16:51:32.960Z,87.98
2022-11-26T16:54:35.584Z,88.09
2022-11-26T16:57:39.592Z,87.68
2022-11-26T17:00:42.343Z,87.51
2022-11-26T17:03:45.116Z,87.43
2022-11-26T17:06:48.010Z,87.55
2022-11-26T17:09:50.857Z,88.02
2022-11-26T17:12:54.820Z,88.43
2022-11-26T17:15:57.754Z,88.27
2022-11-26T17:19:01.478Z,88.50
2022-11-26T17:22:04.066Z,88.37
2022-11-26T17:25:08.164Z,88.49
2022-11-26T17:28:13.587Z,88.69
2022-11-26T17:31:16.357Z,88.74
2022-11-26T17:34:19.040Z,89.28
2022-11-26T17:37:25.377Z,89.22
2022-11-26T17:40:28.942Z,89.29
2022-11-26T17:43:32.994Z,89.18
2022-11-26T17:47:00.897Z,89.43
2022-11-26T17:49:58.483Z,89.01
2022-11-26T17:53:01.142Z,88.74
2022-11-26T17:56:03.708Z,88.81
2022-11-26T17:59:07.943Z,88.65
2022-11-26T18:02:11.415Z,88.70
2022-11-26T18:05:14.440Z,89.23
2022-11-26T18:08:17.166Z,89.02
2022-11-26T18:11:19.968Z,88.93
2022-11-26T18:14:24.702Z,89.18
2022-11-26T18:17:27.668Z,88.90
2022-11-26T18:20:30.356Z,88.76
2022-11-26T18:23:32.993Z,89.30
2022-11-26T18:26:35.785Z,90.21
2022-11-26T18:29:39.971Z,89.82
2022-11-26T18:32:42.922Z,89.54
2022-11-26T18:35:45.548Z,89.06
2022-11-26T18:38:48.398Z,89.25
2022-11-26T18:41:54.523Z,89.48
2022-11-26T18:45:01.702Z,89.53
2022-11-26T18:48:04.540Z,89.25
2022-11-26T18:51:07.404Z,89.34
2022-11-26T18:54:10.733Z,89.49
2022-11-26T18:57:13.549Z,89.66
2022-11-26T19:00:18.513Z,89.84
2022-11-26T19:03:21.383Z,89.63
2022-11-26T19:06:25.356Z,89.29
2022-11-26T19:09:27.919Z,89.70
2022-11-26T19:12:30.706Z,89.85
2022-11-26T19:15:34.854Z,89.66
2022-11-26T19:18:37.865Z,89.59
2022-11-26T19:21:40.463Z,89.73
2022-11-26T19:24:43.100Z,89.40
2022-11-26T19:27:45.757Z,89.59
2022-11-26T19:30:59.790Z,89.49
2022-11-26T19:34:05.862Z,89.59
2022-11-26T19:37:08.441Z,89.74
2022-11-26T19:40:12.366Z,89.34
2022-11-26T19:43:14.891Z,89.22
2022-11-26T19:46:21.508Z,89.76
2022-11-26T19:49:24.166Z,89.69
2022-11-26T19:52:26.909Z,89.52
2022-11-26T19:55:29.779Z,89.66
2022-11-26T19:58:34.040Z,89.65
2022-11-26T20:01:38.583Z,89.51
2022-11-26T20:04:41.427Z,89.65
2022-11-26T20:07:45.286Z,89.16
2022-11-26T20:10:50.026Z,88.87
2022-11-26T20:13:52.921Z,88.15
2022-11-26T20:17:00.900Z,89.18
2022-11-26T20:20:04.640Z,89.80
2022-11-26T20:23:07.420Z,89.77
2022-11-26T20:26:16.672Z,89.63
2022-11-26T20:29:20.079Z,89.91
2022-11-26T20:32:24.072Z,90.32
2022-11-26T20:35:26.918Z,90.40
2022-11-26T20:38:29.547Z,90.65
2022-11-26T20:41:32.644Z,90.55
2022-11-26T20:44:35.900Z,89.88
2022-11-26T20:47:39.892Z,89.88
2022-11-26T20:50:42.537Z,89.14
2022-11-26T20:53:46.855Z,89.48
2022-11-26T20:56:49.658Z,90.43
2022-11-26T20:59:52.241Z,91.03
2022-11-26T21:02:56.462Z,91.36
2022-11-26T21:06:03.040Z,91.31
2022-11-26T21:09:07.280Z,90.96
2022-11-26T21:12:09.994Z,91.03
2022-11-26T21:15:13.004Z,90.69
2022-11-26T21:18:17.146Z,90.65
2022-11-26T21:21:19.783Z,90.62
2022-11-26T21:24:22.578Z,90.21
2022-11-26T21:27:25.368Z,90.51
2022-11-26T21:30:28.169Z,90.24
2022-11-26T21:33:32.167Z,89.91
2022-11-26T21:36:36.783Z,90.28
2022-11-26T21:39:39.648Z,89.73
2022-11-26T21:42:42.377Z,90.36
2022-11-26T21:45:45.110Z,89.81
2022-11-26T21:48:49.700Z,89.91
2022-11-26T21:51:52.574Z,90.07
2022-11-26T21:54:58.395Z,89.92
2022-11-26T21:58:03.473Z,89.87
2022-11-26T22:01:13.701Z,89.48
2022-11-26T22:04:19.510Z,89.09
2022-11-26T22:07:22.545Z,88.86
2022-11-26T22:10:25.636Z,88.78
2022-11-26T22:13:28.288Z,88.86
2022-11-26T22:16:31.431Z,88.38
2022-11-26T22:19:35.539Z,88.77
2022-11-26T22:22:38.148Z,88.99
2022-11-26T22:25:40.720Z,88.83
2022-11-26T22:28:43.691Z,89.21
2022-11-26T22:31:48.272Z,89.55
2022-11-26T22:34:52.487Z,89.53
2022-11-26T22:37:55.128Z,89.62
2022-11-26T22:41:01.729Z,90.03
2022-11-26T22:44:04.419Z,90.16
2022-11-26T22:47:07.128Z,90.05
2022-11-26T22:50:11.711Z,89.47
2022-11-26T22:53:14.495Z,89.58
2022-11-26T22:56:18.373Z,89.64
2022-11-26T22:59:21.163Z,89.98
2022-11-26T23:02:23.933Z,90.30
2022-11-26T23:05:28.050Z,90.00
2022-11-26T23:08:30.820Z,89.56
2022-11-26T23:11:35.590Z,89.74
2022-11-26T23:14:38.378Z,89.87
2022-11-26T23:17:41.079Z,89.23
2022-11-26T23:20:45.468Z,88.94
2022-11-26T23:23:48.893Z,88.72
2022-11-26T23:26:51.477Z,89.08
2022-11-26T23:29:54.027Z,89.25
2022-11-26T23:32:56.618Z,89.59
2022-11-26T23:36:00.571Z,89.26
2022-11-26T23:39:05.581Z,89.53
2022-11-26T23:42:08.147Z,89.04
2022-11-26T23:45:12.902Z,89.15
2022-11-26T23:48:15.680Z,88.88
2022-11-26T23:51:21.334Z,88.53
2022-11-26T23:54:23.993Z,88.36
2022-11-26T23:57:26.656Z,88.94
